sensor_id;sensor_type;location;lat;lon;timestamp;pressure;altitude;pressure_sealevel;temperature;humidity
36726;BME280;44936;52.086;5.150;2024-02-26T00:00:04;100753.97;;;6.68;100.00
36726;BME280;44936;52.086;5.150;2024-02-26T00:02:30;100711.09;;;6.50;100.00
36726;BME280;44936;52.086;5.150;2024-02-26T00:04:56;100740.81;;;6.62;100.00
36726;BME280;44936;52.086;5.150;2024-02-26T00:07:22;100751.22;;;6.59;100.00
36726;BME280;44936;52.086;5.150;2024-02-26T00:09:47;100756.38;;;6.56;100.00
36726;BME280;44936;52.086;5.150;2024-02-26T00:12:12;100736.25;;;6.47;100.00
36726;BME280;44936;52.086;5.150;2024-02-26T00:14:37;100740.66;;;6.52;100.00
36726;BME280;44936;52.086;5.150;2024-02-26T00:17:03;100725.81;;;6.47;100.00
36726;BME280;44936;52.086;5.150;2024-02-26T00:19:28;100744.19;;;6.55;100.00
36726;BME280;44936;52.086;5.150;2024-02-26T00:21:53;100748.66;;;6.62;100.00
36726;BME280;44936;52.086;5.150;2024-02-26T00:24:20;100761.63;;;6.59;100.00
36726;BME280;44936;52.086;5.150;2024-02-26T00:26:46;100745.69;;;6.42;100.00
36726;BME280;44936;52.086;5.150;2024-02-26T00:29:11;100753.78;;;6.57;100.00
36726;BME280;44936;52.086;5.150;2024-02-26T00:31:37;100738.00;;;6.48;100.00
36726;BME280;44936;52.086;5.150;2024-02-26T00:34:03;100741.44;;;6.45;100.00
36726;BME280;44936;52.086;5.150;2024-02-26T00:36:28;100759.00;;;6.57;100.00
36726;BME280;44936;52.086;5.150;2024-02-26T00:38:53;100723.84;;;6.35;100.00
36726;BME280;44936;52.086;5.150;2024-02-26T00:41:20;100751.03;;;6.49;100.00
36726;BME280;44936;52.086;5.150;2024-02-26T00:43:46;100758.91;;;6.52;100.00
36726;BME280;44936;52.086;5.150;2024-02-26T00:46:11;100764.06;;;6.49;100.00
36726;BME280;44936;52.086;5.150;2024-02-26T00:48:36;100761.44;;;6.48;100.00
36726;BME280;44936;52.086;5.150;2024-02-26T00:51:05;100758.06;;;6.53;100.00
36726;BME280;44936;52.086;5.150;2024-02-26T00:53:31;100729.06;;;6.35;100.00
36726;BME280;44936;52.086;5.150;2024-02-26T00:55:57;100747.44;;;6.43;100.00
36726;BME280;44936;52.086;5.150;2024-02-26T00:58:24;100715.00;;;6.25;100.00
36726;BME280;44936;52.086;5.150;2024-02-26T01:00:49;100758.06;;;6.53;100.00
36726;BME280;44936;52.086;5.150;2024-02-26T01:03:15;100770.44;;;6.64;100.00
36726;BME280;44936;52.086;5.150;2024-02-26T01:05:40;100724.72;;;6.36;100.00
36726;BME280;44936;52.086;5.150;2024-02-26T01:08:05;100713.38;;;6.32;100.00
36726;BME280;44936;52.086;5.150;2024-02-26T01:10:31;100745.88;;;6.52;100.00
36726;BME280;44936;52.086;5.150;2024-02-26T01:12:56;100740.66;;;6.52;100.00
36726;BME280;44936;52.086;5.150;2024-02-26T01:15:22;100758.25;;;6.63;100.00
36726;BME280;44936;52.086;5.150;2024-02-26T01:17:49;100717.88;;;6.39;100.00
36726;BME280;44936;52.086;5.150;2024-02-26T01:20:15;100719.56;;;6.37;100.00
36726;BME280;44936;52.086;5.150;2024-02-26T01:22:41;100702.84;;;6.26;100.00
36726;BME280;44936;52.086;5.150;2024-02-26T01:25:07;100713.56;;;6.43;100.00
36726;BME280;44936;52.086;5.150;2024-02-26T01:27:33;100750.44;;;6.64;100.00
36726;BME280;44936;52.086;5.150;2024-02-26T01:29:58;100708.19;;;6.32;100.00
36726;BME280;44936;52.086;5.150;2024-02-26T01:32:23;100738.19;;;6.60;100.00
36726;BME280;44936;52.086;5.150;2024-02-26T01:34:49;100722.53;;;6.59;100.00
36726;BME280;44936;52.086;5.150;2024-02-26T01:37:14;100741.78;;;6.65;100.00
36726;BME280;44936;52.086;5.150;2024-02-26T01:39:39;100711.06;;;6.47;100.00
36726;BME280;44936;52.086;5.150;2024-02-26T01:42:06;100737.56;;;6.72;100.00
36726;BME280;44936;52.086;5.150;2024-02-26T01:44:32;100729.66;;;6.67;100.00
36726;BME280;44936;52.086;5.150;2024-02-26T01:46:58;100716.34;;;6.53;100.00
36726;BME280;44936;52.086;5.150;2024-02-26T01:49:24;100723.59;;;6.70;100.00
36726;BME280;44936;52.086;5.150;2024-02-26T01:51:49;100716.56;;;6.63;100.00
36726;BME280;44936;52.086;5.150;2024-02-26T01:54:15;100735.78;;;6.71;100.00
36726;BME280;44936;52.086;5.150;2024-02-26T01:56:41;100736.47;;;6.61;100.00
36726;BME280;44936;52.086;5.150;2024-02-26T01:59:08;100742.66;;;6.66;100.00
36726;BME280;44936;52.086;5.150;2024-02-26T02:01:34;100733.00;;;6.60;100.00
36726;BME280;44936;52.086;5.150;2024-02-26T02:04:00;100727.88;;;6.66;100.00
36726;BME280;44936;52.086;5.150;2024-02-26T02:06:26;100735.56;;;6.59;100.00
36726;BME280;44936;52.086;5.150;2024-02-26T02:08:54;100749.66;;;6.70;100.00
36726;BME280;44936;52.086;5.150;2024-02-26T02:11:20;100751.22;;;6.60;100.00
36726;BME280;44936;52.086;5.150;2024-02-26T02:13:45;100757.44;;;6.67;100.00
36726;BME280;44936;52.086;5.150;2024-02-26T02:16:10;100761.06;;;6.75;100.00
36726;BME280;44936;52.086;5.150;2024-02-26T02:18:36;100740.03;;;6.64;100.00
36726;BME280;44936;52.086;5.150;2024-02-26T02:21:01;100737.25;;;6.55;100.00
36726;BME280;44936;52.086;5.150;2024-02-26T02:23:27;100763.38;;;6.60;100.00
36726;BME280;44936;52.086;5.150;2024-02-26T02:25:52;100725.84;;;6.48;100.00
36726;BME280;44936;52.086;5.150;2024-02-26T02:28:18;100760.03;;;6.67;100.00
36726;BME280;44936;52.086;5.150;2024-02-26T02:30:44;100731.78;;;6.41;100.00
36726;BME280;44936;52.086;5.150;2024-02-26T02:33:10;100732.91;;;6.54;100.00
36726;BME280;44936;52.086;5.150;2024-02-26T02:35:36;100763.63;;;6.73;100.00
36726;BME280;44936;52.086;5.150;2024-02-26T02:38:03;100762.72;;;6.71;100.00
36726;BME280;44936;52.086;5.150;2024-02-26T02:40:28;100725.50;;;6.30;100.00
36726;BME280;44936;52.086;5.150;2024-02-26T02:42:53;100764.09;;;6.51;100.00
36726;BME280;44936;52.086;5.150;2024-02-26T02:45:19;100736.28;;;6.50;100.00
36726;BME280;44936;52.086;5.150;2024-02-26T02:47:44;100773.94;;;6.66;100.00
36726;BME280;44936;52.086;5.150;2024-02-26T02:50:09;100767.75;;;6.61;100.00
36726;BME280;44936;52.086;5.150;2024-02-26T02:52:35;100762.50;;;6.58;100.00
36726;BME280;44936;52.086;5.150;2024-02-26T02:55:01;100789.69;;;6.72;100.00
36726;BME280;44936;52.086;5.150;2024-02-26T02:57:26;100737.88;;;6.42;100.00
36726;BME280;44936;52.086;5.150;2024-02-26T02:59:52;100792.25;;;6.70;100.00
36726;BME280;44936;52.086;5.150;2024-02-26T03:02:17;100757.72;;;6.35;100.00
36726;BME280;44936;52.086;5.150;2024-02-26T03:04:42;100808.66;;;6.65;100.00
36726;BME280;44936;52.086;5.150;2024-02-26T03:07:08;100804.38;;;6.68;100.00
36726;BME280;44936;52.086;5.150;2024-02-26T03:09:33;100819.25;;;6.74;100.00
36726;BME280;44936;52.086;5.150;2024-02-26T03:11:58;100820.97;;;6.72;100.00
36726;BME280;44936;52.086;5.150;2024-02-26T03:14:24;100810.97;;;6.49;100.00
36726;BME280;44936;52.086;5.150;2024-02-26T03:16:53;100826.91;;;6.65;100.00
36726;BME280;44936;52.086;5.150;2024-02-26T03:19:19;100812.00;;;6.58;100.00
36726;BME280;44936;52.086;5.150;2024-02-26T03:21:44;100830.28;;;6.61;100.00
36726;BME280;44936;52.086;5.150;2024-02-26T03:24:09;100832.00;;;6.60;100.00
36726;BME280;44936;52.086;5.150;2024-02-26T03:26:36;100807.63;;;6.55;100.00
36726;BME280;44936;52.086;5.150;2024-02-26T03:29:01;100827.63;;;6.58;100.00
36726;BME280;44936;52.086;5.150;2024-02-26T03:31:28;100817.09;;;6.51;100.00
36726;BME280;44936;52.086;5.150;2024-02-26T03:33:53;100835.69;;;6.71;100.00
36726;BME280;44936;52.086;5.150;2024-02-26T03:36:18;100855.75;;;6.74;100.00
36726;BME280;44936;52.086;5.150;2024-02-26T03:38:44;100843.44;;;6.67;100.00
36726;BME280;44936;52.086;5.150;2024-02-26T03:41:09;100839.81;;;6.59;100.00
36726;BME280;44936;52.086;5.150;2024-02-26T03:43:34;100824.69;;;6.39;100.00
36726;BME280;44936;52.086;5.150;2024-02-26T03:46:00;100846.66;;;6.53;100.00
36726;BME280;44936;52.086;5.150;2024-02-26T03:48:25;100852.06;;;6.63;100.00
36726;BME280;44936;52.086;5.150;2024-02-26T03:50:51;100847.72;;;6.63;100.00
36726;BME280;44936;52.086;5.150;2024-02-26T03:53:16;100837.75;;;6.42;100.00
36726;BME280;44936;52.086;5.150;2024-02-26T03:55:41;100854.69;;;6.63;100.00
36726;BME280;44936;52.086;5.150;2024-02-26T03:58:07;100846.00;;;6.64;100.00
36726;BME280;44936;52.086;5.150;2024-02-26T04:00:33;100847.59;;;6.56;100.00
36726;BME280;44936;52.086;5.150;2024-02-26T04:02:58;100850.22;;;6.59;100.00
36726;BME280;44936;52.086;5.150;2024-02-26T04:05:23;100850.47;;;6.71;100.00
36726;BME280;44936;52.086;5.150;2024-02-26T04:07:49;100848.34;;;6.51;100.00
36726;BME280;44936;52.086;5.150;2024-02-26T04:10:14;100856.25;;;6.55;100.00
36726;BME280;44936;52.086;5.150;2024-02-26T04:12:40;100849.34;;;6.58;100.00
36726;BME280;44936;52.086;5.150;2024-02-26T04:15:07;100839.78;;;6.57;100.00
36726;BME280;44936;52.086;5.150;2024-02-26T04:17:33;100844.00;;;6.50;100.00
36726;BME280;44936;52.086;5.150;2024-02-26T04:19:58;100861.66;;;6.65;100.00
36726;BME280;44936;52.086;5.150;2024-02-26T04:22:24;100866.94;;;6.70;100.00
36726;BME280;44936;52.086;5.150;2024-02-26T04:24:49;100859.63;;;6.50;100.00
36726;BME280;44936;52.086;5.150;2024-02-26T04:27:14;100859.69;;;6.53;100.00
36726;BME280;44936;52.086;5.150;2024-02-26T04:29:39;100845.78;;;6.53;100.00
36726;BME280;44936;52.086;5.150;2024-02-26T04:32:06;100859.44;;;6.41;100.00
36726;BME280;44936;52.086;5.150;2024-02-26T04:34:31;100864.09;;;6.56;100.00
36726;BME280;44936;52.086;5.150;2024-02-26T04:36:57;100860.53;;;6.52;100.00
36726;BME280;44936;52.086;5.150;2024-02-26T04:39:22;100864.25;;;6.64;100.00
36726;BME280;44936;52.086;5.150;2024-02-26T04:41:47;100863.28;;;6.60;100.00
36726;BME280;44936;52.086;5.150;2024-02-26T04:44:12;100869.38;;;6.61;100.00
36726;BME280;44936;52.086;5.150;2024-02-26T04:46:38;100865.97;;;6.63;100.00
36726;BME280;44936;52.086;5.150;2024-02-26T04:49:03;100833.41;;;6.43;100.00
36726;BME280;44936;52.086;5.150;2024-02-26T04:51:28;100866.84;;;6.64;100.00
36726;BME280;44936;52.086;5.150;2024-02-26T04:53:54;100864.00;;;6.51;100.00
36726;BME280;44936;52.086;5.150;2024-02-26T04:56:21;100883.25;;;6.60;100.00
36726;BME280;44936;52.086;5.150;2024-02-26T04:58:46;100875.19;;;6.46;100.00
36726;BME280;44936;52.086;5.150;2024-02-26T05:01:12;100895.03;;;6.41;100.00
36726;BME280;44936;52.086;5.150;2024-02-26T05:03:37;100883.84;;;6.45;100.00
36726;BME280;44936;52.086;5.150;2024-02-26T05:06:03;100883.84;;;6.45;100.00
36726;BME280;44936;52.086;5.150;2024-02-26T05:08:28;100888.06;;;6.38;100.00
36726;BME280;44936;52.086;5.150;2024-02-26T05:10:55;100916.06;;;6.48;100.00
36726;BME280;44936;52.086;5.150;2024-02-26T05:13:21;100904.56;;;6.39;100.00
36726;BME280;44936;52.086;5.150;2024-02-26T05:15:47;100907.19;;;6.40;100.00
36726;BME280;44936;52.086;5.150;2024-02-26T05:18:14;100915.88;;;6.41;100.00
36726;BME280;44936;52.086;5.150;2024-02-26T05:20:40;100916.81;;;6.44;100.00
36726;BME280;44936;52.086;5.150;2024-02-26T05:23:05;100927.97;;;6.37;100.00
36726;BME280;44936;52.086;5.150;2024-02-26T05:25:30;100925.25;;;6.31;100.00
36726;BME280;44936;52.086;5.150;2024-02-26T05:27:56;100909.63;;;6.33;100.00
36726;BME280;44936;52.086;5.150;2024-02-26T05:30:21;100920.94;;;6.33;100.00
36726;BME280;44936;52.086;5.150;2024-02-26T05:32:47;100929.59;;;6.32;100.00
36726;BME280;44936;52.086;5.150;2024-02-26T05:35:12;100940.03;;;6.34;100.00
36726;BME280;44936;52.086;5.150;2024-02-26T05:37:37;100937.25;;;6.26;100.00
36726;BME280;44936;52.086;5.150;2024-02-26T05:40:03;100944.97;;;6.20;100.00
36726;BME280;44936;52.086;5.150;2024-02-26T05:42:29;100935.53;;;6.27;100.00
36726;BME280;44936;52.086;5.150;2024-02-26T05:44:55;100949.56;;;6.32;100.00
36726;BME280;44936;52.086;5.150;2024-02-26T05:47:20;100946.72;;;6.21;100.00
36726;BME280;44936;52.086;5.150;2024-02-26T05:49:45;100951.97;;;6.22;100.00
36726;BME280;44936;52.086;5.150;2024-02-26T05:52:10;100953.88;;;6.30;100.00
36726;BME280;44936;52.086;5.150;2024-02-26T05:54:36;100958.03;;;6.21;100.00
36726;BME280;44936;52.086;5.150;2024-02-26T05:57:01;100961.28;;;6.13;100.00
36726;BME280;44936;52.086;5.150;2024-02-26T05:59:27;100968.41;;;6.20;100.00
36726;BME280;44936;52.086;5.150;2024-02-26T06:01:52;100963.38;;;6.28;100.00
36726;BME280;44936;52.086;5.150;2024-02-26T06:04:17;100979.69;;;6.19;100.00
36726;BME280;44936;52.086;5.150;2024-02-26T06:06:44;100970.25;;;6.25;100.00
36726;BME280;44936;52.086;5.150;2024-02-26T06:09:10;100967.44;;;6.16;100.00
36726;BME280;44936;52.086;5.150;2024-02-26T06:11:36;100961.28;;;6.13;100.00
36726;BME280;44936;52.086;5.150;2024-02-26T06:14:01;100976.13;;;6.17;100.00
36726;BME280;44936;52.086;5.150;2024-02-26T06:16:27;100988.47;;;6.25;100.00
36726;BME280;44936;52.086;5.150;2024-02-26T06:18:52;100958.69;;;6.13;100.00
36726;BME280;44936;52.086;5.150;2024-02-26T06:21:18;100984.91;;;6.20;100.00
36726;BME280;44936;52.086;5.150;2024-02-26T06:23:43;100992.97;;;6.31;100.00
36726;BME280;44936;52.086;5.150;2024-02-26T06:26:08;101000.56;;;6.22;100.00
36726;BME280;44936;52.086;5.150;2024-02-26T06:28:35;100996.28;;;6.24;100.00
36726;BME280;44936;52.086;5.150;2024-02-26T06:31:01;100992.84;;;6.27;100.00
36726;BME280;44936;52.086;5.150;2024-02-26T06:33:26;101005.66;;;6.17;100.00
36726;BME280;44936;52.086;5.150;2024-02-26T06:35:52;100965.22;;;5.95;100.00
36726;BME280;44936;52.086;5.150;2024-02-26T06:38:17;101011.03;;;6.25;100.00
36726;BME280;44936;52.086;5.150;2024-02-26T06:40:44;101016.28;;;6.27;100.00
36726;BME280;44936;52.086;5.150;2024-02-26T06:43:09;101010.84;;;6.16;100.00
36726;BME280;44936;52.086;5.150;2024-02-26T06:45:34;101006.28;;;6.07;100.00
36726;BME280;44936;52.086;5.150;2024-02-26T06:48:00;101021.34;;;6.19;100.00
36726;BME280;44936;52.086;5.150;2024-02-26T06:50:25;101028.38;;;6.23;100.00
36726;BME280;44936;52.086;5.150;2024-02-26T06:52:50;101010.63;;;6.07;100.00
36726;BME280;44936;52.086;5.150;2024-02-26T06:55:16;101032.88;;;6.30;100.00
36726;BME280;44936;52.086;5.150;2024-02-26T06:57:41;101044.28;;;6.35;100.00
36726;BME280;44936;52.086;5.150;2024-02-26T07:00:07;101036.63;;;6.41;100.00
36726;BME280;44936;52.086;5.150;2024-02-26T07:02:32;101033.94;;;6.38;100.00
36726;BME280;44936;52.086;5.150;2024-02-26T07:04:58;101050.25;;;6.30;100.00
36726;BME280;44936;52.086;5.150;2024-02-26T07:07:24;101044.06;;;6.26;100.00
36726;BME280;44936;52.086;5.150;2024-02-26T07:09:49;101052.88;;;6.31;100.00
36726;BME280;44936;52.086;5.150;2024-02-26T07:12:15;101059.91;;;6.35;100.00
36726;BME280;44936;52.086;5.150;2024-02-26T07:14:41;101061.59;;;6.33;100.00
36726;BME280;44936;52.086;5.150;2024-02-26T07:17:06;101073.06;;;6.40;100.00
36726;BME280;44936;52.086;5.150;2024-02-26T07:19:32;101070.31;;;6.35;100.00
36726;BME280;44936;52.086;5.150;2024-02-26T07:21:57;101065.94;;;6.33;100.00
36726;BME280;44936;52.086;5.150;2024-02-26T07:24:23;101070.03;;;6.23;100.00
36726;BME280;44936;52.086;5.150;2024-02-26T07:26:48;101075.53;;;6.35;100.00
36726;BME280;44936;52.086;5.150;2024-02-26T07:29:13;101075.50;;;6.34;100.00
36726;BME280;44936;52.086;5.150;2024-02-26T07:31:39;101082.53;;;6.36;100.00
36726;BME280;44936;52.086;5.150;2024-02-26T07:34:04;101077.22;;;6.33;100.00
36726;BME280;44936;52.086;5.150;2024-02-26T07:36:29;101086.91;;;6.37;100.00
36726;BME280;44936;52.086;5.150;2024-02-26T07:38:55;101084.13;;;6.31;100.00
36726;BME280;44936;52.086;5.150;2024-02-26T07:41:20;101093.56;;;6.26;100.00
36726;BME280;44936;52.086;5.150;2024-02-26T07:43:46;101090.09;;;6.27;100.00
36726;BME280;44936;52.086;5.150;2024-02-26T07:46:12;101099.72;;;6.28;100.00
36726;BME280;44936;52.086;5.150;2024-02-26T07:48:38;101094.63;;;6.34;100.00
36726;BME280;44936;52.086;5.150;2024-02-26T07:51:04;101106.94;;;6.40;100.00
36726;BME280;44936;52.086;5.150;2024-02-26T07:53:29;101112.44;;;6.17;100.00
36726;BME280;44936;52.086;5.150;2024-02-26T07:55:55;101114.63;;;6.35;100.00
36726;BME280;44936;52.086;5.150;2024-02-26T07:58:20;101110.03;;;6.25;100.00
36726;BME280;44936;52.086;5.150;2024-02-26T08:00:46;101130.38;;;6.40;100.00
36726;BME280;44936;52.086;5.150;2024-02-26T08:03:11;101129.03;;;6.56;100.00
36726;BME280;44936;52.086;5.150;2024-02-26T08:05:38;101120.25;;;6.53;100.00
36726;BME280;44936;52.086;5.150;2024-02-26T08:08:06;101132.63;;;6.62;100.00
36726;BME280;44936;52.086;5.150;2024-02-26T08:10:31;101140.19;;;6.51;100.00
36726;BME280;44936;52.086;5.150;2024-02-26T08:12:56;101127.84;;;6.43;100.00
36726;BME280;44936;52.086;5.150;2024-02-26T08:15:29;101153.56;;;6.65;100.00
36726;BME280;44936;52.086;5.150;2024-02-26T08:17:55;101138.50;;;6.53;100.00
36726;BME280;44936;52.086;5.150;2024-02-26T08:20:20;101155.72;;;6.45;100.00
36726;BME280;44936;52.086;5.150;2024-02-26T08:22:45;101141.06;;;6.50;100.00
36726;BME280;44936;52.086;5.150;2024-02-26T08:25:11;101157.59;;;6.52;100.00
36726;BME280;44936;52.086;5.150;2024-02-26T08:27:36;101151.59;;;6.55;100.00
36726;BME280;44936;52.086;5.150;2024-02-26T08:30:02;101138.13;;;6.37;100.00
36726;BME280;44936;52.086;5.150;2024-02-26T08:32:27;101143.56;;;6.46;100.00
36726;BME280;44936;52.086;5.150;2024-02-26T08:34:52;101175.81;;;6.51;100.00
36726;BME280;44936;52.086;5.150;2024-02-26T08:37:18;101170.84;;;6.62;100.00
36726;BME280;44936;52.086;5.150;2024-02-26T08:39:43;101161.00;;;6.48;100.00
36726;BME280;44936;52.086;5.150;2024-02-26T08:42:08;101174.09;;;6.53;100.00
36726;BME280;44936;52.086;5.150;2024-02-26T08:44:33;101167.97;;;6.49;100.00
36726;BME280;44936;52.086;5.150;2024-02-26T08:46:59;101175.06;;;6.55;100.00
36726;BME280;44936;52.086;5.150;2024-02-26T08:49:24;101165.38;;;6.51;100.00
36726;BME280;44936;52.086;5.150;2024-02-26T08:51:49;101163.88;;;6.61;100.00
36726;BME280;44936;52.086;5.150;2024-02-26T08:54:15;101187.72;;;6.76;100.00
36726;BME280;44936;52.086;5.150;2024-02-26T08:56:40;101182.72;;;6.85;100.00
36726;BME280;44936;52.086;5.150;2024-02-26T08:59:05;101185.28;;;6.84;100.00
36726;BME280;44936;52.086;5.150;2024-02-26T09:01:31;101181.59;;;6.74;100.00
36726;BME280;44936;52.086;5.150;2024-02-26T09:03:56;101197.91;;;6.67;100.00
36726;BME280;44936;52.086;5.150;2024-02-26T09:06:22;101193.78;;;6.75;100.00
36726;BME280;44936;52.086;5.150;2024-02-26T09:08:47;101197.84;;;6.64;100.00
36726;BME280;44936;52.086;5.150;2024-02-26T09:11:12;101201.00;;;6.87;100.00
36726;BME280;44936;52.086;5.150;2024-02-26T09:13:38;101195.56;;;6.77;100.00
36726;BME280;44936;52.086;5.150;2024-02-26T09:16:03;101206.81;;;6.75;100.00
36726;BME280;44936;52.086;5.150;2024-02-26T09:18:29;101218.38;;;6.51;100.00
36726;BME280;44936;52.086;5.150;2024-02-26T09:20:55;101205.63;;;6.62;100.00
36726;BME280;44936;52.086;5.150;2024-02-26T09:23:20;101207.44;;;6.65;100.00
36726;BME280;44936;52.086;5.150;2024-02-26T09:25:45;101215.47;;;6.74;100.00
36726;BME280;44936;52.086;5.150;2024-02-26T09:28:11;101223.94;;;6.64;100.00
36726;BME280;44936;52.086;5.150;2024-02-26T09:30:36;101232.81;;;6.72;100.00
36726;BME280;44936;52.086;5.150;2024-02-26T09:33:01;101226.53;;;6.64;100.00
36726;BME280;44936;52.086;5.150;2024-02-26T09:35:26;101235.44;;;6.72;100.00
36726;BME280;44936;52.086;5.150;2024-02-26T09:37:52;101234.38;;;6.65;100.00
36726;BME280;44936;52.086;5.150;2024-02-26T09:40:17;101231.78;;;6.65;100.00
36726;BME280;44936;52.086;5.150;2024-02-26T09:42:44;101243.06;;;6.64;100.00
36726;BME280;44936;52.086;5.150;2024-02-26T09:45:18;101249.34;;;6.72;100.00
36726;BME280;44936;52.086;5.150;2024-02-26T09:47:44;101250.72;;;6.60;100.00
36726;BME280;44936;52.086;5.150;2024-02-26T09:50:09;101262.19;;;6.65;100.00
36726;BME280;44936;52.086;5.150;2024-02-26T09:52:37;101253.31;;;6.58;100.00
36726;BME280;44936;52.086;5.150;2024-02-26T09:55:04;101263.59;;;6.53;100.00
36726;BME280;44936;52.086;5.150;2024-02-26T09:57:30;101262.06;;;6.62;100.00
36726;BME280;44936;52.086;5.150;2024-02-26T09:59:59;101277.03;;;6.69;100.00
36726;BME280;44936;52.086;5.150;2024-02-26T10:02:28;101265.53;;;6.61;100.00
36726;BME280;44936;52.086;5.150;2024-02-26T10:04:54;101282.50;;;6.79;100.00
36726;BME280;44936;52.086;5.150;2024-02-26T10:07:22;101284.22;;;6.77;100.00
36726;BME280;44936;52.086;5.150;2024-02-26T10:09:48;101294.56;;;6.74;100.00
36726;BME280;44936;52.086;5.150;2024-02-26T10:12:15;101285.25;;;6.84;100.00
36726;BME280;44936;52.086;5.150;2024-02-26T10:14:42;101300.84;;;6.81;100.00
36726;BME280;44936;52.086;5.150;2024-02-26T10:17:07;101303.09;;;6.69;100.00
36726;BME280;44936;52.086;5.150;2024-02-26T10:19:33;101306.34;;;6.60;100.00
36726;BME280;44936;52.086;5.150;2024-02-26T10:22:00;101316.94;;;6.66;100.00
36726;BME280;44936;52.086;5.150;2024-02-26T10:24:30;101309.22;;;6.71;100.00
36726;BME280;44936;52.086;5.150;2024-02-26T10:26:56;101329.28;;;6.72;100.00
36726;BME280;44936;52.086;5.150;2024-02-26T10:29:23;101329.31;;;6.73;100.00
36726;BME280;44936;52.086;5.150;2024-02-26T10:31:50;101333.50;;;6.68;100.00
36726;BME280;44936;52.086;5.150;2024-02-26T10:34:16;101339.63;;;6.70;100.00
36726;BME280;44936;52.086;5.150;2024-02-26T10:36:42;101331.63;;;6.63;100.00
36726;BME280;44936;52.086;5.150;2024-02-26T10:39:08;101343.97;;;6.70;100.00
36726;BME280;44936;52.086;5.150;2024-02-26T10:41:34;101347.59;;;6.75;100.00
36726;BME280;44936;52.086;5.150;2024-02-26T10:43:59;101351.88;;;6.73;100.00
36726;BME280;44936;52.086;5.150;2024-02-26T10:46:25;101343.19;;;6.72;100.00
36726;BME280;44936;52.086;5.150;2024-02-26T10:48:52;101348.66;;;6.81;100.00
36726;BME280;44936;52.086;5.150;2024-02-26T10:51:22;101353.34;;;6.96;100.00
36726;BME280;44936;52.086;5.150;2024-02-26T10:53:51;101352.16;;;6.84;100.00
36726;BME280;44936;52.086;5.150;2024-02-26T10:56:24;101375.94;;;6.96;100.00
36726;BME280;44936;52.086;5.150;2024-02-26T10:58:51;101370.25;;;7.10;100.00
36726;BME280;44936;52.086;5.150;2024-02-26T11:01:18;101371.09;;;7.09;100.00
36726;BME280;44936;52.086;5.150;2024-02-26T11:03:44;101376.16;;;7.03;100.00
36726;BME280;44936;52.086;5.150;2024-02-26T11:06:12;101390.84;;;7.00;100.00
36726;BME280;44936;52.086;5.150;2024-02-26T11:08:38;101379.38;;;6.93;100.00
36726;BME280;44936;52.086;5.150;2024-02-26T11:11:04;101386.66;;;7.06;100.00
36726;BME280;44936;52.086;5.150;2024-02-26T11:13:30;101396.41;;;7.14;100.00
36726;BME280;44936;52.086;5.150;2024-02-26T11:15:56;101393.97;;;7.20;100.00
36726;BME280;44936;52.086;5.150;2024-02-26T11:18:26;101397.75;;;7.32;100.00
36726;BME280;44936;52.086;5.150;2024-02-26T11:20:54;101395.09;;;7.31;100.00
36726;BME280;44936;52.086;5.150;2024-02-26T11:23:22;101409.25;;;7.41;100.00
36726;BME280;44936;52.086;5.150;2024-02-26T11:25:51;101402.41;;;7.44;100.00
36726;BME280;44936;52.086;5.150;2024-02-26T11:28:19;101400.97;;;7.57;100.00
36726;BME280;44936;52.086;5.150;2024-02-26T11:30:47;101401.16;;;7.64;100.00
36726;BME280;44936;52.086;5.150;2024-02-26T11:33:13;101390.66;;;7.61;100.00
36726;BME280;44936;52.086;5.150;2024-02-26T11:35:39;101406.22;;;7.58;100.00
36726;BME280;44936;52.086;5.150;2024-02-26T11:38:05;101402.28;;;7.76;100.00
36726;BME280;44936;52.086;5.150;2024-02-26T11:40:32;101400.56;;;7.76;100.00
36726;BME280;44936;52.086;5.150;2024-02-26T11:42:58;101407.22;;;7.63;100.00
36726;BME280;44936;52.086;5.150;2024-02-26T11:48:04;101398.53;;;7.64;100.00
36726;BME280;44936;52.086;5.150;2024-02-26T11:50:36;101416.66;;;7.58;100.00
36726;BME280;44936;52.086;5.150;2024-02-26T11:53:29;101417.72;;;7.66;100.00
36726;BME280;44936;52.086;5.150;2024-02-26T11:59:09;101428.09;;;7.62;100.00
36726;BME280;44936;52.086;5.150;2024-02-26T12:01:45;101431.03;;;7.77;100.00
36726;BME280;44936;52.086;5.150;2024-02-26T12:04:25;101434.44;;;7.73;100.00
36726;BME280;44936;52.086;5.150;2024-02-26T12:06:55;101442.06;;;7.65;100.00
36726;BME280;44936;52.086;5.150;2024-02-26T12:09:38;101449.84;;;7.62;100.00
36726;BME280;44936;52.086;5.150;2024-02-26T12:12:05;101442.91;;;7.63;100.00
36726;BME280;44936;52.086;5.150;2024-02-26T12:14:40;101445.31;;;7.55;100.00
36726;BME280;44936;52.086;5.150;2024-02-26T12:17:25;101446.44;;;7.66;100.00
36726;BME280;44936;52.086;5.150;2024-02-26T12:19:51;101441.97;;;7.61;100.00
36726;BME280;44936;52.086;5.150;2024-02-26T12:22:18;101460.03;;;7.52;100.00
36726;BME280;44936;52.086;5.150;2024-02-26T12:24:43;101455.91;;;7.61;100.00
36726;BME280;44936;52.086;5.150;2024-02-26T12:27:09;101460.13;;;7.56;100.00
36726;BME280;44936;52.086;5.150;2024-02-26T12:29:34;101475.03;;;7.60;100.00
36726;BME280;44936;52.086;5.150;2024-02-26T12:32:00;101451.16;;;7.45;100.00
36726;BME280;44936;52.086;5.150;2024-02-26T12:34:26;101464.81;;;7.70;100.00
36726;BME280;44936;52.086;5.150;2024-02-26T12:36:51;101468.88;;;7.58;100.00
36726;BME280;44936;52.086;5.150;2024-02-26T12:39:18;101456.66;;;7.57;100.00
36726;BME280;44936;52.086;5.150;2024-02-26T12:41:46;101469.28;;;7.75;100.00
36726;BME280;44936;52.086;5.150;2024-02-26T12:44:15;101476.16;;;7.70;100.00
36726;BME280;44936;52.086;5.150;2024-02-26T12:46:41;101488.75;;;7.86;100.00
36726;BME280;44936;52.086;5.150;2024-02-26T12:49:07;101483.25;;;7.77;100.00